createdAt,value
2018-07-07T00:02:07.264Z,18.85
2018-07-07T00:04:37.440Z,18.77
2018-07-07T00:07:08.093Z,18.76
2018-07-07T00:09:38.005Z,19.22
2018-07-07T00:12:08.876Z,19.06
2018-07-07T00:14:39.567Z,19.07
2018-07-07T00:17:09.832Z,19.00
2018-07-07T00:19:45.128Z,18.90
2018-07-07T00:22:21.400Z,18.99
2018-07-07T00:24:55.232Z,18.80
2018-07-07T00:27:26.102Z,18.91
2018-07-07T00:29:57.317Z,18.98
2018-07-07T00:32:35.612Z,18.83
2018-07-07T00:35:07.558Z,18.85
2018-07-07T00:37:38.904Z,19.03
2018-07-07T00:40:13.349Z,19.37
2018-07-07T00:42:45.781Z,19.68
2018-07-07T00:48:06.064Z,19.53
2018-07-07T00:50:37.388Z,19.03
2018-07-07T00:53:08.269Z,19.01
2018-07-07T00:55:39.032Z,18.99
2018-07-07T01:00:56.826Z,18.89
2018-07-07T01:03:36.410Z,18.98
2018-07-07T01:06:09.282Z,18.77
2018-07-07T01:08:41.465Z,19.02
2018-07-07T01:11:17.831Z,19.22
2018-07-07T01:13:54.331Z,18.86
2018-07-07T01:16:24.849Z,18.77
2018-07-07T01:18:59.918Z,18.45
2018-07-07T01:21:36.145Z,18.57
2018-07-07T01:24:07.598Z,18.57
2018-07-07T01:26:37.776Z,18.30
2018-07-07T01:29:07.876Z,18.14
2018-07-07T01:31:38.516Z,18.14
2018-07-07T01:34:08.498Z,18.06
2018-07-07T01:36:38.482Z,18.12
2018-07-07T01:39:08.583Z,17.98
2018-07-07T01:41:38.586Z,18.16
2018-07-07T01:44:08.543Z,18.17
2018-07-07T01:46:38.546Z,18.02
2018-07-07T01:49:08.543Z,17.93
2018-07-07T01:51:38.609Z,18.02
2018-07-07T01:54:08.173Z,18.11
2018-07-07T01:56:38.347Z,17.91
2018-07-07T01:59:08.316Z,17.89
2018-07-07T02:01:39.063Z,17.83
2018-07-07T02:04:08.883Z,17.72
2018-07-07T02:06:38.821Z,17.58
2018-07-07T02:09:09.744Z,17.60
2018-07-07T02:11:43.680Z,17.55
2018-07-07T02:14:18.013Z,17.60
2018-07-07T02:16:52.980Z,17.45
2018-07-07T02:19:23.811Z,17.68
2018-07-07T02:22:00.161Z,17.79
2018-07-07T02:24:40.845Z,17.73
2018-07-07T02:27:15.983Z,17.84
2018-07-07T02:29:48.362Z,18.00
2018-07-07T02:32:18.596Z,18.29
2018-07-07T02:34:50.594Z,17.99
2018-07-07T02:37:23.445Z,17.81
2018-07-07T02:39:59.306Z,17.65
2018-07-07T02:42:34.408Z,18.22
2018-07-07T02:45:04.845Z,18.55
2018-07-07T02:47:35.528Z,18.55
2018-07-07T02:50:05.844Z,17.99
2018-07-07T02:52:36.499Z,18.08
2018-07-07T02:55:10.018Z,18.36
2018-07-07T02:57:42.998Z,18.57
2018-07-07T03:00:17.203Z,18.62
2018-07-07T03:02:47.475Z,18.45
2018-07-07T03:05:19.117Z,18.61
2018-07-07T03:07:49.130Z,18.68
2018-07-07T03:10:19.017Z,18.29
2018-07-07T03:12:48.950Z,17.81
2018-07-07T03:15:23.901Z,17.86
2018-07-07T03:17:59.188Z,17.73
2018-07-07T03:20:35.059Z,17.98
2018-07-07T03:23:06.031Z,17.44
2018-07-07T03:25:37.840Z,17.80
2018-07-07T03:28:08.720Z,18.25
2018-07-07T03:30:38.646Z,18.46
2018-07-07T03:33:08.584Z,18.21
2018-07-07T03:35:38.627Z,18.34
2018-07-07T03:38:08.746Z,18.20
2018-07-07T03:40:38.778Z,17.77
2018-07-07T03:43:08.809Z,17.59
2018-07-07T03:45:39.972Z,17.71
2018-07-07T03:48:09.543Z,17.53
2018-07-07T03:50:39.603Z,17.79
2018-07-07T03:53:10.841Z,18.16
2018-07-07T03:55:44.133Z,18.32
2018-07-07T03:58:16.809Z,18.26
2018-07-07T04:00:50.893Z,18.05
2018-07-07T04:03:24.071Z,17.77
2018-07-07T04:05:55.894Z,17.40
2018-07-07T04:08:26.630Z,16.94
2018-07-07T04:10:57.243Z,17.09
2018-07-07T04:13:28.076Z,17.08
2018-07-07T04:15:58.950Z,17.20
2018-07-07T04:18:34.878Z,17.42
2018-07-07T04:21:06.943Z,17.96
2018-07-07T04:23:37.397Z,18.16
2018-07-07T04:26:08.160Z,18.27
2018-07-07T04:28:38.335Z,18.32
2018-07-07T04:31:09.163Z,17.91
2018-07-07T04:33:39.049Z,17.73
2018-07-07T04:36:09.035Z,17.62
2018-07-07T04:38:39.656Z,17.90
2018-07-07T04:41:09.618Z,18.07
2018-07-07T04:43:39.533Z,17.71
2018-07-07T04:46:09.484Z,17.82
2018-07-07T04:48:39.398Z,17.36
2018-07-07T04:51:09.342Z,17.51
2018-07-07T04:53:39.247Z,17.56
2018-07-07T04:56:09.202Z,17.80
2018-07-07T04:58:39.271Z,18.09
2018-07-07T05:01:09.186Z,17.77
2018-07-07T05:03:39.231Z,17.58
2018-07-07T05:06:10.020Z,17.56
2018-07-07T05:08:40.207Z,17.76
2018-07-07T05:11:10.145Z,17.51
2018-07-07T05:13:39.980Z,17.47
2018-07-07T05:16:09.984Z,17.45
2018-07-07T05:18:39.927Z,16.97
2018-07-07T05:21:09.979Z,17.06
2018-07-07T05:23:39.980Z,17.23
2018-07-07T05:26:10.086Z,17.29
2018-07-07T05:28:39.968Z,17.11
2018-07-07T05:31:10.010Z,17.12
2018-07-07T05:33:40.071Z,17.27
2018-07-07T05:36:10.083Z,17.34
2018-07-07T05:38:40.073Z,17.16
2018-07-07T05:41:10.079Z,17.11
2018-07-07T05:43:41.145Z,17.23
2018-07-07T05:46:13.111Z,17.14
2018-07-07T05:48:43.763Z,17.38
2018-07-07T05:51:14.852Z,17.42
2018-07-07T05:53:47.771Z,17.40
2018-07-07T05:56:25.385Z,17.22
2018-07-07T05:58:55.972Z,17.34
2018-07-07T06:01:26.220Z,17.38
2018-07-07T06:03:56.275Z,17.33
2018-07-07T06:06:26.731Z,17.30
2018-07-07T06:08:57.195Z,17.45
2018-07-07T06:11:27.701Z,17.30
2018-07-07T06:13:58.259Z,17.43
2018-07-07T06:16:29.189Z,17.57
2018-07-07T06:19:00.263Z,17.59
2018-07-07T06:21:31.159Z,17.52
2018-07-07T06:24:01.862Z,17.61
2018-07-07T06:26:32.754Z,17.60
2018-07-07T06:29:02.839Z,17.58
2018-07-07T06:31:33.611Z,17.62
2018-07-07T06:34:04.944Z,17.67
2018-07-07T06:36:35.546Z,17.76
2018-07-07T06:39:07.042Z,17.80
2018-07-07T06:41:37.399Z,17.85
2018-07-07T06:44:08.856Z,17.92
2018-07-07T06:46:39.071Z,18.03
2018-07-07T06:49:09.703Z,17.77
2018-07-07T06:51:43.830Z,18.04
2018-07-07T06:54:23.858Z,17.95
2018-07-07T06:57:13.385Z,17.92
2018-07-07T06:59:45.213Z,18.05
2018-07-07T07:02:17.788Z,18.08
2018-07-07T07:04:55.704Z,18.07
2018-07-07T07:10:09.997Z,18.29
2018-07-07T07:12:41.553Z,18.29
2018-07-07T07:15:12.377Z,18.32
2018-07-07T07:17:45.613Z,18.32
2018-07-07T07:20:20.486Z,18.36
2018-07-07T07:22:52.698Z,18.50
2018-07-07T07:25:23.374Z,18.42
2018-07-07T07:27:54.358Z,18.52
2018-07-07T07:30:24.713Z,18.61
2018-07-07T07:32:55.722Z,18.73
2018-07-07T07:35:25.990Z,18.72
2018-07-07T07:37:57.837Z,18.68
2018-07-07T07:40:32.016Z,18.74
2018-07-07T07:43:03.453Z,18.90
2018-07-07T07:45:36.049Z,18.85
2018-07-07T07:48:08.723Z,18.81
2018-07-07T07:50:39.427Z,18.85
2018-07-07T07:53:10.289Z,19.02
2018-07-07T07:55:40.192Z,18.98
2018-07-07T07:58:14.258Z,19.17
2018-07-07T08:03:38.290Z,19.18
2018-07-07T08:06:09.553Z,19.15
2018-07-07T08:11:39.693Z,19.25
2018-07-07T08:14:11.819Z,19.39
2018-07-07T08:16:52.848Z,19.39
2018-07-07T08:20:05.976Z,19.40
2018-07-07T08:22:40.021Z,19.50
2018-07-07T08:25:10.807Z,19.49
2018-07-07T08:27:40.786Z,19.50
2018-07-07T08:30:10.600Z,19.69
2018-07-07T08:32:40.551Z,19.96
2018-07-07T08:35:11.198Z,20.27
2018-07-07T08:37:41.114Z,20.24
2018-07-07T08:40:13.707Z,20.10
2018-07-07T08:42:54.780Z,20.14
2018-07-07T08:49:08.864Z,20.65
2018-07-07T08:56:40.270Z,20.52
2018-07-07T08:59:10.650Z,20.77
2018-07-07T09:07:10.787Z,20.82
2018-07-07T09:09:41.233Z,21.06
2018-07-07T09:12:11.044Z,21.17
2018-07-07T09:14:40.931Z,21.09
2018-07-07T09:17:10.853Z,21.08
2018-07-07T09:24:40.974Z,21.35
2018-07-07T09:27:10.832Z,21.22
2018-07-07T09:29:41.266Z,21.07
2018-07-07T09:32:11.076Z,21.40
2018-07-07T09:34:41.155Z,21.41
2018-07-07T09:37:11.163Z,21.47
2018-07-07T09:39:41.123Z,21.71
2018-07-07T09:54:41.297Z,22.05
2018-07-07T09:57:11.116Z,22.10
2018-07-07T09:59:41.384Z,22.52
2018-07-07T10:02:11.363Z,22.35
2018-07-07T10:09:38.151Z,23.03
2018-07-07T10:12:11.271Z,23.06
2018-07-07T10:14:41.293Z,23.15
2018-07-07T10:17:11.257Z,23.24
2018-07-07T10:19:41.212Z,23.28
2018-07-07T10:22:11.337Z,23.12
2018-07-07T10:24:41.323Z,23.17
2018-07-07T10:27:11.303Z,22.91
2018-07-07T10:29:41.254Z,22.81
2018-07-07T10:32:11.268Z,22.80
2018-07-07T10:34:41.322Z,22.55
2018-07-07T10:37:11.251Z,23.34
2018-07-07T10:39:41.210Z,23.39
2018-07-07T10:42:11.275Z,23.41
2018-07-07T10:44:41.549Z,23.57
2018-07-07T11:27:37.834Z,24.87
2018-07-07T11:30:09.225Z,24.63
2018-07-07T11:32:50.398Z,24.85
2018-07-07T11:35:36.538Z,24.67
2018-07-07T11:55:51.678Z,25.22
2018-07-07T11:58:22.522Z,24.83
2018-07-07T12:39:48.668Z,26.00
2018-07-07T12:42:31.904Z,25.73
2018-07-07T12:48:29.262Z,25.83
2018-07-07T12:54:00.665Z,26.10
2018-07-07T13:27:40.587Z,26.75
2018-07-07T13:30:11.383Z,26.65
2018-07-07T13:32:41.602Z,26.61
2018-07-07T13:35:11.463Z,26.70
2018-07-07T13:37:41.337Z,26.52
2018-07-07T13:40:11.223Z,26.71
2018-07-07T13:48:09.144Z,26.54
2018-07-07T13:50:40.594Z,26.46
2018-07-07T13:53:11.666Z,26.87
2018-07-07T13:55:41.592Z,27.29
2018-07-07T14:22:48.433Z,27.44
2018-07-07T14:36:50.721Z,27.06
2018-07-07T14:49:19.153Z,27.27
2018-07-07T14:52:06.677Z,27.25
2018-07-07T15:14:35.417Z,26.92
2018-07-07T15:17:19.715Z,26.69
2018-07-07T16:01:16.575Z,26.90
2018-07-07T16:18:15.448Z,27.26
2018-07-07T16:20:48.272Z,27.22
2018-07-07T16:23:18.167Z,27.73
2018-07-07T16:25:48.215Z,27.31
2018-07-07T16:34:46.455Z,28.11
2018-07-07T16:44:19.048Z,27.40
2018-07-07T16:46:49.505Z,27.10
2018-07-07T17:07:59.226Z,26.78
2018-07-07T17:16:43.117Z,27.23
2018-07-07T17:22:42.712Z,26.93
2018-07-07T17:55:17.086Z,26.09
2018-07-07T17:57:58.471Z,26.02
2018-07-07T18:00:50.862Z,25.79
2018-07-07T18:03:22.960Z,25.74
2018-07-07T18:08:37.351Z,25.86
2018-07-07T18:11:11.635Z,25.61
2018-07-07T18:13:42.738Z,25.47
2018-07-07T18:16:13.174Z,25.72
2018-07-07T18:18:44.396Z,25.59
2018-07-07T18:21:21.593Z,25.16
2018-07-07T18:23:56.907Z,25.27
2018-07-07T18:26:36.945Z,25.25
2018-07-07T18:29:06.950Z,25.09
2018-07-07T18:31:36.851Z,25.11
2018-07-07T18:34:06.911Z,25.02
2018-07-07T18:39:36.720Z,24.60
2018-07-07T18:42:07.955Z,24.59
2018-07-07T18:44:37.569Z,24.62
2018-07-07T18:47:11.672Z,24.62
2018-07-07T18:49:48.667Z,24.65
2018-07-07T18:52:29.449Z,24.53
2018-07-07T18:58:03.641Z,24.30
2018-07-07T19:22:42.463Z,24.04
2018-07-07T19:25:21.849Z,23.68
2018-07-07T19:27:52.185Z,23.42
2018-07-07T19:30:23.723Z,23.81
2018-07-07T19:33:04.465Z,23.60
2018-07-07T19:35:45.988Z,23.25
2018-07-07T19:38:33.128Z,23.51
2018-07-07T19:47:55.011Z,23.52
2018-07-07T19:53:42.891Z,22.97
2018-07-07T19:56:23.349Z,23.21
2018-07-07T20:07:39.843Z,22.89
2018-07-07T20:22:41.695Z,22.71
2018-07-07T20:25:25.340Z,22.68
2018-07-07T20:31:11.043Z,22.71
2018-07-07T20:33:41.623Z,22.81
2018-07-07T20:36:20.477Z,22.63
2018-07-07T20:39:12.567Z,22.41
2018-07-07T20:42:44.965Z,22.41
2018-07-07T20:45:25.279Z,22.58
2018-07-07T20:48:00.748Z,22.29
2018-07-07T20:50:55.925Z,22.24
2018-07-07T20:59:55.438Z,22.26
2018-07-07T21:07:26.467Z,22.25
2018-07-07T21:10:24.921Z,22.36
2018-07-07T21:12:55.979Z,21.86
2018-07-07T21:15:31.506Z,21.73
2018-07-07T21:18:08.991Z,21.80
2018-07-07T21:20:40.338Z,21.72
2018-07-07T21:23:11.045Z,22.01
2018-07-07T21:25:42.131Z,21.71
2018-07-07T21:28:18.277Z,21.78
2018-07-07T21:33:51.340Z,21.47
2018-07-07T21:36:31.199Z,21.32
2018-07-07T21:44:02.825Z,21.21
2018-07-07T21:49:18.818Z,21.42
2018-07-07T21:51:52.564Z,21.53
2018-07-07T21:54:24.361Z,21.04
2018-07-07T21:56:59.107Z,21.11
2018-07-07T21:59:35.319Z,21.28
2018-07-07T22:02:14.257Z,21.24
2018-07-07T22:04:50.765Z,20.53
2018-07-07T22:07:26.198Z,20.59
2018-07-07T22:09:56.889Z,20.81
2018-07-07T22:12:37.325Z,21.40
2018-07-07T22:21:13.882Z,20.07
2018-07-07T22:23:51.144Z,19.68
2018-07-07T22:26:36.130Z,20.11
2018-07-07T22:29:17.346Z,20.02
2018-07-07T22:31:58.003Z,20.15
2018-07-07T22:34:45.842Z,19.96
2018-07-07T22:37:21.774Z,19.71
2018-07-07T22:39:53.253Z,19.53
2018-07-07T22:42:23.727Z,19.35
2018-07-07T22:45:06.772Z,19.56
2018-07-07T22:47:48.735Z,19.59
2018-07-07T22:50:22.252Z,19.65
2018-07-07T22:52:52.201Z,19.36
2018-07-07T22:55:22.412Z,19.10
2018-07-07T22:57:52.419Z,19.64
2018-07-07T23:00:22.503Z,19.65
2018-07-07T23:02:52.203Z,19.17
2018-07-07T23:05:22.191Z,19.56
2018-07-07T23:07:52.546Z,19.77
2018-07-07T23:10:22.539Z,19.67
2018-07-07T23:12:52.401Z,19.39
2018-07-07T23:15:22.354Z,18.83
2018-07-07T23:17:52.519Z,18.91
2018-07-07T23:20:25.097Z,18.61
2018-07-07T23:23:02.999Z,18.65
2018-07-07T23:25:40.498Z,18.81
2018-07-07T23:28:18.016Z,18.83
2018-07-07T23:30:50.883Z,18.80
2018-07-07T23:36:07.608Z,18.77
2018-07-07T23:38:40.283Z,19.20
2018-07-07T23:41:16.573Z,19.54
2018-07-07T23:43:47.002Z,18.91
2018-07-07T23:46:18.200Z,18.83
2018-07-07T23:48:49.273Z,18.36
2018-07-07T23:51:20.507Z,18.36
2018-07-07T23:53:51.665Z,18.10
2018-07-07T23:56:22.550Z,17.62
2018-07-07T23:58:57.517Z,17.91
